createdAt,value
2018-03-14T00:00:28.206Z,4.60
2018-03-14T00:02:55.747Z,4.60
2018-03-14T00:05:23.243Z,4.50
2018-03-14T00:07:50.756Z,4.50
2018-03-14T00:10:18.260Z,4.40
2018-03-14T00:12:45.959Z,4.30
2018-03-14T00:15:13.655Z,4.20
2018-03-14T00:17:41.350Z,4.20
2018-03-14T00:20:09.053Z,4.10
2018-03-14T00:22:36.735Z,3.90
2018-03-14T00:25:04.430Z,3.90
2018-03-14T00:27:32.136Z,3.80
2018-03-14T00:29:59.861Z,3.80
2018-03-14T00:32:27.552Z,3.80
2018-03-14T00:34:55.286Z,3.70
2018-03-14T00:37:22.981Z,3.60
2018-03-14T00:39:50.496Z,3.60
2018-03-14T00:42:18.974Z,3.40
2018-03-14T00:44:47.256Z,3.40
2018-03-14T00:47:14.967Z,3.40
2018-03-14T00:49:42.644Z,3.40
2018-03-14T00:52:10.152Z,3.40
2018-03-14T00:54:37.615Z,3.30
2018-03-14T00:57:05.973Z,3.30
2018-03-14T00:59:33.689Z,3.30
2018-03-14T01:02:02.152Z,3.10
2018-03-14T01:04:29.847Z,3.10
2018-03-14T01:06:57.557Z,3.10
2018-03-14T01:09:25.264Z,3.00
2018-03-14T01:11:53.765Z,3.00
2018-03-14T01:14:21.470Z,3.00
2018-03-14T01:16:49.168Z,3.10
2018-03-14T01:19:16.863Z,3.00
2018-03-14T01:21:45.336Z,3.10
2018-03-14T01:24:13.048Z,3.00
2018-03-14T01:26:40.745Z,3.00
2018-03-14T01:29:08.431Z,2.90
2018-03-14T01:31:36.151Z,2.90
2018-03-14T01:34:03.664Z,3.00
2018-03-14T01:36:32.136Z,2.80
2018-03-14T01:38:59.697Z,2.80
2018-03-14T01:41:27.386Z,2.90
2018-03-14T01:43:55.110Z,2.90
2018-03-14T01:46:22.599Z,2.90
2018-03-14T01:48:50.070Z,2.90
2018-03-14T01:51:17.788Z,3.00
2018-03-14T01:53:46.273Z,2.90
2018-03-14T01:56:14.001Z,2.90
2018-03-14T01:58:42.515Z,3.00
2018-03-14T02:01:10.288Z,3.00
2018-03-14T02:03:38.006Z,2.90
2018-03-14T02:06:05.699Z,2.80
2018-03-14T02:08:33.427Z,2.70
2018-03-14T02:11:01.115Z,2.70
2018-03-14T02:13:29.407Z,2.60
2018-03-14T02:15:57.114Z,2.60
2018-03-14T02:18:24.819Z,2.60
2018-03-14T02:20:52.560Z,2.60
2018-03-14T02:23:20.277Z,2.60
2018-03-14T02:25:47.809Z,2.60
2018-03-14T02:28:15.488Z,2.60
2018-03-14T02:30:43.006Z,2.50
2018-03-14T02:33:10.710Z,2.40
2018-03-14T02:35:38.464Z,2.30
2018-03-14T02:38:06.489Z,2.30
2018-03-14T02:40:34.173Z,2.30
2018-03-14T02:43:01.711Z,2.30
2018-03-14T02:45:29.424Z,2.10
2018-03-14T02:47:56.928Z,2.00
2018-03-14T02:50:24.437Z,2.10
2018-03-14T02:52:52.005Z,2.10
2018-03-14T02:55:19.505Z,2.00
2018-03-14T02:57:47.006Z,2.00
2018-03-14T03:00:14.522Z,2.00
2018-03-14T03:02:42.021Z,2.20
2018-03-14T03:05:09.527Z,2.10
2018-03-14T03:07:37.075Z,2.10
2018-03-14T03:10:04.594Z,2.00
2018-03-14T03:12:33.028Z,2.00
2018-03-14T03:15:00.544Z,2.00
2018-03-14T03:17:28.044Z,2.10
2018-03-14T03:19:55.575Z,2.20
2018-03-14T03:22:23.084Z,2.30
2018-03-14T03:24:50.592Z,2.30
2018-03-14T03:27:18.085Z,2.30
2018-03-14T03:29:45.585Z,2.30
2018-03-14T03:32:13.101Z,2.30
2018-03-14T03:34:40.614Z,2.20
2018-03-14T03:37:08.134Z,2.20
2018-03-14T03:39:35.618Z,2.20
2018-03-14T03:42:03.902Z,2.30
2018-03-14T03:44:32.171Z,2.30
2018-03-14T03:47:00.436Z,2.30
2018-03-14T03:49:27.956Z,2.30
2018-03-14T03:51:55.479Z,2.30
2018-03-14T03:54:22.959Z,2.30
2018-03-14T03:56:50.479Z,2.40
2018-03-14T03:59:17.973Z,2.40
2018-03-14T04:01:46.285Z,2.50
2018-03-14T04:04:13.796Z,2.50
2018-03-14T04:06:41.308Z,2.50
2018-03-14T04:09:08.793Z,2.50
2018-03-14T04:11:36.278Z,2.50
2018-03-14T04:14:03.787Z,2.50
2018-03-14T04:16:31.258Z,2.50
2018-03-14T04:18:58.796Z,2.50
2018-03-14T04:21:26.286Z,2.50
2018-03-14T04:23:53.832Z,2.40
2018-03-14T04:26:22.276Z,2.40
2018-03-14T04:28:49.790Z,2.30
2018-03-14T04:31:17.278Z,2.40
2018-03-14T04:33:44.777Z,2.40
2018-03-14T04:36:12.297Z,2.40
2018-03-14T04:38:39.791Z,2.30
2018-03-14T04:41:07.110Z,2.30
2018-03-14T04:43:34.632Z,2.30
2018-03-14T04:46:02.114Z,2.20
2018-03-14T04:48:29.611Z,2.20
2018-03-14T04:50:57.124Z,2.20
2018-03-14T04:53:24.639Z,2.20
2018-03-14T04:55:52.148Z,2.20
2018-03-14T04:58:19.659Z,2.20
2018-03-14T05:00:47.159Z,2.10
2018-03-14T05:03:14.669Z,2.20
2018-03-14T05:05:42.157Z,2.10
2018-03-14T05:08:09.674Z,2.20
2018-03-14T05:10:37.173Z,2.10
2018-03-14T05:13:04.643Z,2.10
2018-03-14T05:15:32.141Z,2.00
2018-03-14T05:17:59.641Z,2.10
2018-03-14T05:20:27.152Z,2.00
2018-03-14T05:22:54.677Z,2.00
2018-03-14T05:25:22.147Z,1.90
2018-03-14T05:27:49.649Z,1.80
2018-03-14T05:30:17.148Z,1.90
2018-03-14T05:32:44.636Z,1.80
2018-03-14T05:35:12.161Z,1.70
2018-03-14T05:37:39.659Z,1.60
2018-03-14T05:40:07.178Z,1.70
2018-03-14T05:42:34.650Z,1.60
2018-03-14T05:45:02.146Z,1.70
2018-03-14T05:47:29.647Z,1.70
2018-03-14T05:49:57.153Z,1.80
2018-03-14T05:52:24.673Z,1.80
2018-03-14T05:54:52.179Z,1.80
2018-03-14T05:57:19.706Z,1.70
2018-03-14T05:59:47.197Z,1.70
2018-03-14T06:02:14.723Z,1.80
2018-03-14T06:04:42.235Z,1.80
2018-03-14T06:07:09.741Z,1.90
2018-03-14T06:09:37.250Z,1.90
2018-03-14T06:12:04.779Z,1.90
2018-03-14T06:14:32.317Z,2.00
2018-03-14T06:16:59.816Z,2.00
2018-03-14T06:19:27.316Z,2.00
2018-03-14T06:21:55.614Z,2.10
2018-03-14T06:24:23.145Z,2.00
2018-03-14T06:26:50.455Z,2.00
2018-03-14T06:29:17.969Z,2.00
2018-03-14T06:31:46.249Z,2.10
2018-03-14T06:34:13.757Z,2.10
2018-03-14T06:36:41.276Z,2.10
2018-03-14T06:39:08.778Z,2.20
2018-03-14T06:41:36.458Z,2.20
2018-03-14T06:44:03.998Z,2.20
2018-03-14T06:46:32.273Z,2.20
2018-03-14T06:49:00.534Z,2.30
2018-03-14T06:51:28.030Z,2.30
2018-03-14T06:53:55.526Z,2.40
2018-03-14T06:56:23.008Z,2.50
2018-03-14T06:58:56.270Z,2.50
2018-03-14T07:01:23.532Z,2.50
2018-03-14T07:03:56.729Z,2.60
2018-03-14T07:06:24.228Z,2.70
2018-03-14T07:08:52.487Z,2.80
2018-03-14T07:11:19.996Z,2.70
2018-03-14T07:13:48.284Z,3.00
2018-03-14T07:16:16.552Z,3.00
2018-03-14T07:18:44.876Z,3.10
2018-03-14T07:21:12.398Z,3.10
2018-03-14T07:23:39.897Z,3.20
2018-03-14T07:26:07.394Z,3.20
2018-03-14T07:28:34.907Z,3.10
2018-03-14T07:31:02.584Z,3.10
2018-03-14T07:33:30.077Z,3.10
2018-03-14T07:35:57.577Z,3.20
2018-03-14T07:38:25.085Z,3.10
2018-03-14T07:40:52.606Z,3.10
2018-03-14T07:43:20.116Z,3.10
2018-03-14T07:45:47.617Z,3.10
2018-03-14T07:48:15.138Z,3.10
2018-03-14T07:50:42.616Z,3.20
2018-03-14T07:53:10.102Z,3.30
2018-03-14T07:55:37.608Z,3.40
2018-03-14T07:58:04.857Z,3.50
2018-03-14T08:00:32.368Z,3.50
2018-03-14T08:02:59.862Z,3.60
2018-03-14T08:05:27.387Z,3.70
2018-03-14T08:07:54.890Z,3.70
2018-03-14T08:10:22.388Z,3.70
2018-03-14T08:12:50.672Z,3.80
2018-03-14T08:15:18.187Z,3.80
2018-03-14T08:17:45.700Z,3.90
2018-03-14T08:20:12.966Z,4.00
2018-03-14T08:22:40.489Z,4.00
2018-03-14T08:25:08.005Z,4.10
2018-03-14T08:27:35.519Z,4.10
2018-03-14T08:30:02.770Z,4.20
2018-03-14T08:32:30.289Z,4.20
2018-03-14T08:34:57.820Z,4.20
2018-03-14T08:37:25.317Z,4.20
2018-03-14T08:39:52.837Z,4.20
2018-03-14T08:42:20.355Z,4.30
2018-03-14T08:44:47.837Z,4.50
2018-03-14T08:47:15.330Z,4.70
2018-03-14T08:49:42.860Z,4.80
2018-03-14T08:52:10.376Z,4.80
2018-03-14T08:54:38.647Z,4.90
2018-03-14T08:57:06.929Z,5.10
2018-03-14T08:59:35.254Z,5.10
2018-03-14T09:02:02.952Z,5.10
2018-03-14T09:04:30.472Z,5.30
2018-03-14T09:06:57.987Z,5.40
2018-03-14T09:09:25.514Z,5.50
2018-03-14T09:11:53.009Z,5.60
2018-03-14T09:14:20.542Z,5.60
2018-03-14T09:16:48.063Z,5.60
2018-03-14T09:19:15.575Z,5.80
2018-03-14T09:21:43.089Z,5.90
2018-03-14T09:24:10.603Z,6.00
2018-03-14T09:26:38.108Z,6.20
2018-03-14T09:29:05.631Z,6.30
2018-03-14T09:31:33.157Z,6.40
2018-03-14T09:34:00.676Z,6.40
2018-03-14T09:36:28.182Z,6.50
2018-03-14T09:38:55.722Z,6.60
2018-03-14T09:41:23.224Z,6.80
2018-03-14T09:43:50.767Z,7.10
2018-03-14T09:46:18.290Z,7.10
2018-03-14T09:48:45.777Z,7.30
2018-03-14T09:51:13.298Z,7.50
2018-03-14T09:53:40.861Z,7.70
2018-03-14T09:56:08.424Z,7.90
2018-03-14T09:58:35.968Z,7.90
2018-03-14T10:01:03.504Z,8.10
2018-03-14T10:03:31.847Z,8.20
2018-03-14T10:05:59.357Z,8.10
2018-03-14T10:08:27.617Z,8.50
2018-03-14T10:10:55.262Z,8.50
2018-03-14T10:13:22.784Z,8.60
2018-03-14T10:15:50.340Z,8.60
2018-03-14T10:18:18.661Z,8.90
2018-03-14T10:20:46.219Z,9.00
2018-03-14T10:23:13.772Z,9.00
2018-03-14T10:25:41.391Z,9.10
2018-03-14T10:28:09.105Z,9.20
2018-03-14T10:30:36.642Z,9.20
2018-03-14T10:33:05.011Z,9.50
2018-03-14T10:35:33.357Z,9.50
2018-03-14T10:38:00.865Z,9.50
2018-03-14T10:40:29.196Z,9.50
2018-03-14T10:42:56.796Z,9.50
2018-03-14T10:45:24.416Z,9.40
2018-03-14T10:47:51.960Z,9.40
2018-03-14T10:50:19.449Z,9.40
2018-03-14T10:52:46.986Z,9.50
2018-03-14T10:55:14.491Z,9.70
2018-03-14T10:57:41.998Z,9.70
2018-03-14T11:00:09.342Z,9.60
2018-03-14T11:02:52.325Z,9.50
2018-03-14T11:05:19.698Z,9.50
2018-03-14T11:07:47.303Z,9.60
2018-03-14T11:10:14.942Z,9.60
2018-03-14T11:12:42.489Z,9.60
2018-03-14T11:15:10.776Z,9.70
2018-03-14T11:17:38.301Z,9.60
2018-03-14T11:20:05.873Z,9.60
2018-03-14T11:22:33.380Z,9.70
2018-03-14T11:25:00.924Z,9.50
2018-03-14T11:27:28.453Z,9.60
2018-03-14T11:29:55.991Z,9.80
2018-03-14T11:32:24.274Z,9.80
2018-03-14T11:34:52.563Z,9.80
2018-03-14T11:37:20.870Z,9.90
2018-03-14T11:39:48.437Z,9.90
2018-03-14T11:42:15.936Z,10.20
2018-03-14T11:44:43.465Z,10.50
2018-03-14T11:47:10.983Z,10.30
2018-03-14T11:49:39.302Z,10.10
2018-03-14T11:52:06.834Z,10.10
2018-03-14T11:54:35.173Z,10.20
2018-03-14T11:57:02.728Z,10.20
2018-03-14T11:59:30.313Z,10.40
2018-03-14T12:01:57.826Z,10.50
2018-03-14T12:04:26.294Z,10.50
2018-03-14T12:06:53.830Z,10.40
2018-03-14T12:09:21.395Z,10.20
2018-03-14T12:11:49.670Z,10.90
2018-03-14T12:14:17.173Z,10.90
2018-03-14T12:16:44.665Z,11.00
2018-03-14T12:19:12.216Z,10.80
2018-03-14T12:21:39.721Z,10.90
2018-03-14T12:24:07.262Z,11.20
2018-03-14T12:26:34.781Z,11.20
2018-03-14T12:29:02.054Z,11.10
2018-03-14T12:31:29.574Z,11.30
2018-03-14T12:33:57.116Z,11.10
2018-03-14T12:36:24.662Z,10.90
2018-03-14T12:38:52.173Z,10.70
2018-03-14T12:41:19.687Z,10.80
2018-03-14T12:43:48.018Z,11.10
2018-03-14T12:46:15.716Z,11.10
2018-03-14T12:48:43.238Z,11.40
2018-03-14T12:51:10.765Z,11.30
2018-03-14T12:53:38.277Z,11.30
2018-03-14T12:56:05.805Z,11.10
2018-03-14T12:58:33.346Z,11.10
2018-03-14T13:01:01.613Z,11.20
2018-03-14T13:03:29.130Z,11.20
2018-03-14T13:05:56.653Z,11.30
2018-03-14T13:08:24.921Z,11.00
2018-03-14T13:10:52.422Z,11.00
2018-03-14T13:13:19.944Z,11.30
2018-03-14T13:15:47.483Z,11.50
2018-03-14T13:18:15.003Z,11.30
2018-03-14T13:20:42.551Z,11.20
2018-03-14T13:23:10.058Z,11.10
2018-03-14T13:25:37.823Z,11.00
2018-03-14T13:28:05.255Z,11.20
2018-03-14T13:30:32.747Z,11.10
2018-03-14T13:33:00.288Z,11.30
2018-03-14T13:35:27.775Z,11.20
2018-03-14T13:37:55.291Z,11.30
2018-03-14T13:40:22.604Z,11.20
2018-03-14T13:42:51.069Z,11.10
2018-03-14T13:45:18.886Z,10.90
2018-03-14T13:47:46.395Z,11.10
2018-03-14T13:50:13.894Z,11.10
2018-03-14T13:52:41.417Z,10.90
2018-03-14T13:55:08.927Z,10.80
2018-03-14T13:57:36.434Z,11.20
2018-03-14T14:00:03.729Z,11.30
2018-03-14T14:02:32.217Z,11.50
2018-03-14T14:04:59.749Z,11.70
2018-03-14T14:07:27.253Z,11.80
2018-03-14T14:09:54.753Z,11.80
2018-03-14T14:12:23.049Z,11.80
2018-03-14T14:14:50.583Z,11.70
2018-03-14T14:17:18.119Z,11.60
2018-03-14T14:19:45.857Z,11.70
2018-03-14T14:22:13.388Z,11.90
2018-03-14T14:24:40.891Z,11.80
2018-03-14T14:27:08.458Z,11.80
2018-03-14T14:29:35.980Z,11.80
2018-03-14T14:32:03.477Z,11.80
2018-03-14T14:34:31.236Z,11.70
2018-03-14T14:36:58.603Z,11.90
2018-03-14T14:39:26.143Z,11.90
2018-03-14T14:41:53.702Z,11.90
2018-03-14T14:44:21.243Z,12.10
2018-03-14T14:46:48.782Z,12.00
2018-03-14T14:49:16.316Z,11.70
2018-03-14T14:51:43.862Z,11.70
2018-03-14T14:54:11.401Z,11.80
2018-03-14T14:56:38.735Z,11.90
2018-03-14T14:59:06.263Z,12.00
2018-03-14T15:01:33.788Z,11.90
2018-03-14T15:04:01.295Z,12.00
2018-03-14T15:06:29.435Z,12.00
2018-03-14T15:08:56.935Z,12.00
2018-03-14T15:11:24.471Z,11.80
2018-03-14T15:13:52.006Z,11.80
2018-03-14T15:16:19.536Z,11.80
2018-03-14T15:18:47.857Z,11.80
2018-03-14T15:21:15.449Z,11.80
2018-03-14T15:23:43.083Z,11.70
2018-03-14T15:26:10.681Z,11.60
2018-03-14T15:28:38.208Z,11.60
2018-03-14T15:31:05.802Z,11.40
2018-03-14T15:33:33.339Z,11.30
2018-03-14T15:36:00.859Z,11.50
2018-03-14T15:38:29.161Z,11.90
2018-03-14T15:40:56.502Z,11.90
2018-03-14T15:43:24.850Z,12.10
2018-03-14T15:45:52.388Z,12.00
2018-03-14T15:48:19.927Z,12.10
2018-03-14T15:50:47.481Z,12.00
2018-03-14T15:53:15.054Z,12.10
2018-03-14T15:55:42.579Z,12.30
2018-03-14T15:58:10.097Z,12.30
2018-03-14T16:00:37.637Z,12.20
2018-03-14T16:03:05.189Z,12.20
2018-03-14T16:05:32.684Z,12.50
2018-03-14T16:08:00.214Z,12.50
2018-03-14T16:10:27.718Z,12.40
2018-03-14T16:12:55.261Z,12.60
2018-03-14T16:15:23.572Z,12.50
2018-03-14T16:17:51.132Z,12.50
2018-03-14T16:20:18.659Z,12.40
2018-03-14T16:22:46.160Z,12.60
2018-03-14T16:25:13.656Z,12.70
2018-03-14T16:27:41.169Z,12.60
2018-03-14T16:30:08.665Z,12.60
2018-03-14T16:32:36.214Z,12.50
2018-03-14T16:35:03.715Z,12.00
2018-03-14T16:37:31.246Z,11.30
2018-03-14T16:39:58.764Z,11.00
2018-03-14T16:42:26.272Z,10.70
2018-03-14T16:44:53.797Z,10.50
2018-03-14T16:47:21.325Z,10.40
2018-03-14T16:49:48.815Z,10.30
2018-03-14T16:52:16.461Z,10.20
2018-03-14T16:54:43.984Z,10.10
2018-03-14T16:57:11.515Z,10.10
2018-03-14T16:59:39.810Z,9.90
2018-03-14T17:02:07.514Z,9.90
2018-03-14T17:04:35.030Z,9.80
2018-03-14T17:07:02.552Z,9.70
2018-03-14T17:09:30.047Z,9.60
2018-03-14T17:11:57.566Z,9.50
2018-03-14T17:14:27.282Z,9.40
2018-03-14T17:16:52.831Z,9.30
2018-03-14T17:19:20.326Z,9.30
2018-03-14T17:21:47.825Z,9.20
2018-03-14T17:24:15.324Z,9.10
2018-03-14T17:26:42.833Z,9.10
2018-03-14T17:29:11.102Z,9.00
2018-03-14T17:31:39.466Z,8.90
2018-03-14T17:34:07.148Z,8.90
2018-03-14T17:36:34.655Z,8.90
2018-03-14T17:39:02.183Z,8.90
2018-03-14T17:41:29.727Z,8.80
2018-03-14T17:43:57.214Z,8.70
2018-03-14T17:46:24.750Z,8.70
2018-03-14T17:48:52.256Z,8.70
2018-03-14T17:51:19.789Z,8.50
2018-03-14T17:53:47.317Z,8.50
2018-03-14T17:56:15.013Z,8.40
2018-03-14T17:58:42.527Z,8.40
2018-03-14T18:01:10.198Z,8.30
2018-03-14T18:03:37.700Z,8.30
2018-03-14T18:06:05.206Z,8.30
2018-03-14T18:08:33.495Z,8.20
2018-03-14T18:11:01.037Z,8.30
2018-03-14T18:13:28.526Z,8.10
2018-03-14T18:15:56.044Z,8.10
2018-03-14T18:18:23.610Z,8.20
2018-03-14T18:20:51.103Z,8.10
2018-03-14T18:23:18.621Z,8.10
2018-03-14T18:25:46.096Z,8.10
2018-03-14T18:28:13.606Z,8.10
2018-03-14T18:30:41.121Z,8.00
2018-03-14T18:33:08.609Z,8.00
2018-03-14T18:35:36.886Z,7.90
2018-03-14T18:38:04.467Z,7.90
2018-03-14T18:40:31.979Z,7.90
2018-03-14T18:43:00.220Z,7.90
2018-03-14T18:45:27.739Z,7.80
2018-03-14T18:47:56.794Z,7.70
2018-03-14T18:50:24.280Z,7.60
2018-03-14T18:52:51.783Z,7.70
2018-03-14T18:55:19.876Z,7.70
2018-03-14T18:57:47.406Z,7.60
2018-03-14T19:00:14.915Z,7.70
2018-03-14T19:02:42.408Z,7.60
2018-03-14T19:05:09.910Z,7.70
2018-03-14T19:07:37.433Z,7.50
2018-03-14T19:10:05.690Z,7.50
2018-03-14T19:12:33.447Z,7.40
2018-03-14T19:15:01.741Z,7.20
2018-03-14T19:17:29.285Z,7.20
2018-03-14T19:19:56.775Z,7.20
2018-03-14T19:22:24.300Z,7.10
2018-03-14T19:24:51.828Z,7.10
2018-03-14T19:27:19.359Z,7.00
2018-03-14T19:29:46.899Z,7.00
2018-03-14T19:32:14.402Z,6.90
2018-03-14T19:34:42.025Z,6.80
2018-03-14T19:37:09.564Z,6.90
2018-03-14T19:39:37.165Z,6.90
2018-03-14T19:42:05.475Z,6.80
2018-03-14T19:44:33.017Z,6.70
2018-03-14T19:47:00.558Z,6.80
2018-03-14T19:49:28.117Z,6.70
2018-03-14T19:51:55.671Z,6.70
2018-03-14T19:54:23.199Z,6.60
2018-03-14T19:56:50.707Z,6.60
2018-03-14T19:59:18.219Z,6.60
2018-03-14T20:01:45.744Z,6.60
2018-03-14T20:04:13.329Z,6.60
2018-03-14T20:06:40.828Z,6.60
2018-03-14T20:09:08.364Z,6.60
2018-03-14T20:11:36.030Z,6.60
2018-03-14T20:14:03.555Z,6.50
2018-03-14T20:16:31.258Z,6.50
2018-03-14T20:18:59.535Z,6.50
2018-03-14T20:21:27.824Z,6.40
2018-03-14T20:23:56.166Z,6.50
2018-03-14T20:26:23.699Z,6.50
2018-03-14T20:28:51.225Z,6.40
2018-03-14T20:31:18.758Z,6.30
2018-03-14T20:33:46.285Z,6.30
2018-03-14T20:36:13.828Z,6.30
2018-03-14T20:38:41.344Z,6.30
2018-03-14T20:41:15.727Z,6.30
2018-03-14T20:43:43.251Z,6.30
2018-03-14T20:46:11.520Z,6.20
2018-03-14T20:48:39.026Z,6.20
2018-03-14T20:51:06.509Z,6.20
2018-03-14T20:53:34.043Z,6.10
2018-03-14T20:56:01.557Z,6.10
2018-03-14T20:58:29.065Z,6.10
2018-03-14T21:00:56.561Z,6.00
2018-03-14T21:03:24.053Z,6.00
2018-03-14T21:05:51.576Z,6.00
2018-03-14T21:08:19.065Z,5.90
2018-03-14T21:10:46.571Z,5.90
2018-03-14T21:13:14.083Z,5.90
2018-03-14T21:15:41.586Z,5.90
2018-03-14T21:18:08.941Z,5.90
2018-03-14T21:20:36.430Z,5.90
2018-03-14T21:23:04.708Z,5.80
2018-03-14T21:25:32.969Z,5.70
2018-03-14T21:28:00.474Z,5.70
2018-03-14T21:30:27.956Z,5.70
2018-03-14T21:32:55.476Z,5.70
2018-03-14T21:35:23.044Z,5.60
2018-03-14T21:37:50.536Z,5.60
2018-03-14T21:40:18.074Z,5.50
2018-03-14T21:42:46.475Z,5.50
2018-03-14T21:45:14.003Z,5.50
2018-03-14T21:47:41.529Z,5.50
2018-03-14T21:50:09.053Z,5.50
2018-03-14T21:52:36.557Z,5.50
2018-03-14T21:55:03.637Z,5.40
2018-03-14T21:57:31.153Z,5.30
2018-03-14T21:59:58.655Z,5.40
2018-03-14T22:02:26.180Z,5.30
2018-03-14T22:04:54.454Z,5.30
2018-03-14T22:07:21.995Z,5.20
2018-03-14T22:09:50.267Z,5.20
2018-03-14T22:12:18.551Z,5.20
2018-03-14T22:14:46.028Z,5.20
2018-03-14T22:17:13.533Z,5.20
2018-03-14T22:19:41.048Z,5.20
2018-03-14T22:22:08.521Z,5.20
2018-03-14T22:24:36.041Z,5.20
2018-03-14T22:27:03.543Z,5.10
2018-03-14T22:29:31.029Z,5.10
2018-03-14T22:31:58.541Z,5.10
2018-03-14T22:34:26.055Z,5.10
2018-03-14T22:36:53.577Z,5.10
2018-03-14T22:39:21.090Z,5.00
2018-03-14T22:41:48.570Z,5.10
2018-03-14T22:44:16.067Z,5.00
2018-03-14T22:46:43.562Z,5.10
2018-03-14T22:49:11.045Z,5.00
2018-03-14T22:51:38.547Z,5.00
2018-03-14T22:54:06.044Z,5.00
2018-03-14T22:56:33.566Z,4.90
2018-03-14T22:59:01.104Z,5.00
2018-03-14T23:01:28.817Z,4.90
2018-03-14T23:03:57.179Z,4.90
2018-03-14T23:06:24.707Z,4.90
2018-03-14T23:08:52.223Z,4.80
2018-03-14T23:11:20.536Z,4.90
2018-03-14T23:13:48.820Z,4.90
2018-03-14T23:16:16.297Z,4.90
2018-03-14T23:18:43.816Z,4.90
2018-03-14T23:21:12.128Z,4.80
2018-03-14T23:23:40.414Z,4.80
2018-03-14T23:26:07.930Z,4.70
2018-03-14T23:28:35.439Z,4.80
2018-03-14T23:31:03.510Z,4.70
2018-03-14T23:33:31.011Z,4.70
2018-03-14T23:35:58.495Z,4.70
2018-03-14T23:38:26.006Z,4.60
2018-03-14T23:40:53.475Z,4.60
2018-03-14T23:43:20.992Z,4.60
2018-03-14T23:45:48.461Z,4.60
2018-03-14T23:48:15.956Z,4.60
2018-03-14T23:50:43.464Z,4.60
2018-03-14T23:53:10.940Z,4.50
2018-03-14T23:55:38.446Z,4.50
2018-03-14T23:58:05.917Z,4.50
